Time;durP1;ratioP1;P1;durP2;ratioP2;P2;SDS_P1;SDS_P2;PMS_P1;PMS_P2;Temp;Humidity;BMP_temperature;BMP_pressure;BME280_temperature;BME280_humidity;BME280_pressure;Samples;Min_cycle;Max_cycle;Signal;HPM_P1;HPM_P2
2022/06/27 00:00:53;;;;;;;0.40;0.40;;;;;19.00;98005.00;;;;5117295;28;20194;-74
2022/06/27 00:03:23;;;;;;;0.40;0.40;;;;;18.80;97986.00;;;;5114618;28;20228;-74
2022/06/27 00:05:52;;;;;;;0.40;0.40;;;;;18.80;97985.00;;;;5114546;28;20278;-74
2022/06/27 00:08:20;;;;;;;0.40;0.40;;;;;18.70;97992.00;;;;5114583;28;20218;-74
2022/06/27 00:10:46;;;;;;;0.40;0.40;;;;;18.80;98024.00;;;;5114646;28;20566;-74
2022/06/27 00:13:16;;;;;;;0.50;0.50;;;;;18.90;98052.00;;;;5114624;28;20695;-74
2022/06/27 00:15:45;;;;;;;0.40;0.40;;;;;18.70;98063.00;;;;5114436;28;20641;-74
2022/06/27 00:18:12;;;;;;;0.40;0.40;;;;;18.50;98052.00;;;;5114132;28;20196;-73
2022/06/27 00:20:39;;;;;;;0.30;0.30;;;;;18.50;98078.00;;;;5113962;28;20677;-73
2022/06/27 00:23:08;;;;;;;0.40;0.40;;;;;18.50;98091.00;;;;5114329;28;20217;-73
2022/06/27 00:25:36;;;;;;;1.40;1.37;;;;;18.60;98108.00;;;;5114089;28;20715;-74
2022/06/27 00:28:03;;;;;;;0.50;0.50;;;;;18.60;98133.00;;;;5096349;28;20208;-73
2022/06/27 00:30:30;;;;;;;0.40;0.40;;;;;18.70;98166.00;;;;5096234;28;20206;-74
2022/06/27 00:32:56;;;;;;;0.30;0.30;;;;;18.90;98186.00;;;;5114231;28;20267;-74
2022/06/27 00:35:23;;;;;;;0.40;0.40;;;;;18.70;98236.00;;;;5114213;28;20226;-74
2022/06/27 00:37:52;;;;;;;0.40;0.40;;;;;18.30;98302.00;;;;5114089;28;20233;-73
2022/06/27 00:40:19;;;;;;;0.50;0.50;;;;;18.20;98364.00;;;;5114034;28;20502;-73
2022/06/27 00:42:47;;;;;;;0.33;0.33;;;;;17.80;98363.00;;;;5113948;28;20539;-73
2022/06/27 00:45:14;;;;;;;0.50;0.50;;;;;17.60;98364.00;;;;5114016;28;20220;-73
2022/06/27 00:47:41;;;;;;;0.30;0.30;;;;;17.50;98340.00;;;;5113979;28;20691;-74
2022/06/27 00:50:10;;;;;;;0.40;0.40;;;;;17.60;98337.00;;;;5114145;28;20262;-72
2022/06/27 00:52:41;;;;;;;0.40;0.40;;;;;17.50;98325.00;;;;5113997;28;20194;-72
2022/06/27 00:55:09;;;;;;;0.47;0.47;;;;;17.50;98296.00;;;;5114185;28;20582;-72
2022/06/27 00:57:36;;;;;;;0.40;0.40;;;;;17.40;98271.00;;;;5113951;28;20232;-73
2022/06/27 01:00:05;;;;;;;1.10;1.07;;;;;17.50;98265.00;;;;5113831;28;20225;-72
2022/06/27 01:02:32;;;;;;;0.43;0.43;;;;;17.70;98263.00;;;;5113883;28;20194;-72
2022/06/27 01:05:01;;;;;;;0.60;0.60;;;;;17.80;98240.00;;;;5095927;28;20239;-73
2022/06/27 01:07:28;;;;;;;0.40;0.40;;;;;17.80;98230.00;;;;5113805;28;20210;-73
2022/06/27 01:10:00;;;;;;;0.43;0.43;;;;;17.90;98191.00;;;;5095724;28;20218;-73
2022/06/27 01:12:27;;;;;;;0.60;0.60;;;;;17.90;98185.00;;;;5113776;28;20202;-73
2022/06/27 01:14:55;;;;;;;1.70;1.23;;;;;18.00;98173.00;;;;5113751;28;20201;-73
2022/06/27 01:17:23;;;;;;;0.83;0.83;;;;;18.20;98153.00;;;;5113732;28;20198;-73
2022/06/27 01:19:50;;;;;;;0.50;0.50;;;;;18.10;98136.00;;;;5113734;28;20648;-73
2022/06/27 01:22:18;;;;;;;0.40;0.40;;;;;18.10;98106.00;;;;5113572;28;20297;-73
2022/06/27 01:24:45;;;;;;;0.40;0.40;;;;;18.10;98087.00;;;;5113609;28;20225;-73
2022/06/27 01:27:12;;;;;;;0.50;0.50;;;;;18.10;98077.00;;;;5095835;28;20232;-72
2022/06/27 01:29:39;;;;;;;0.40;0.40;;;;;18.00;98057.00;;;;5116290;28;20198;-72
2022/06/27 01:32:06;;;;;;;0.40;0.40;;;;;18.00;98056.00;;;;5118767;28;20235;-73
2022/06/27 01:34:34;;;;;;;0.40;0.40;;;;;18.00;98044.00;;;;5120484;28;20198;-72
2022/06/27 01:37:01;;;;;;;0.47;0.47;;;;;18.00;98035.00;;;;5120035;28;20628;-73
2022/06/27 01:39:29;;;;;;;0.43;0.43;;;;;17.90;98045.00;;;;5119051;28;20226;-72
2022/06/27 01:41:58;;;;;;;0.40;0.40;;;;;17.90;98039.00;;;;5117054;28;20205;-72
2022/06/27 01:44:26;;;;;;;0.50;0.50;;;;;17.90;98008.00;;;;5116832;28;20249;-72
2022/06/27 01:47:00;;;;;;;0.40;0.40;;;;;18.00;98009.00;;;;5116948;28;20209;-72
2022/06/27 01:49:28;;;;;;;0.33;0.33;;;;;18.00;98025.00;;;;5099467;28;20552;-73
2022/06/27 01:51:56;;;;;;;0.80;0.80;;;;;18.00;98039.00;;;;5117259;28;20208;-73
2022/06/27 01:54:25;;;;;;;0.47;0.47;;;;;17.90;98043.00;;;;5116763;28;20213;-72
2022/06/27 01:56:53;;;;;;;0.40;0.40;;;;;17.90;98047.00;;;;5116734;28;20202;-72
2022/06/27 01:59:25;;;;;;;0.40;0.40;;;;;17.90;98051.00;;;;5116716;28;20228;-72
2022/06/27 02:01:52;;;;;;;0.43;0.43;;;;;18.00;98059.00;;;;5116648;28;20194;-72
2022/06/27 02:04:19;;;;;;;0.40;0.40;;;;;18.20;98053.00;;;;5116491;28;20214;-73
2022/06/27 02:06:47;;;;;;;0.40;0.40;;;;;18.20;98056.00;;;;5116615;28;20263;-73
2022/06/27 02:09:16;;;;;;;0.70;0.70;;;;;18.20;98075.00;;;;5116533;28;20186;-72
2022/06/27 02:11:45;;;;;;;0.40;0.40;;;;;18.10;98062.00;;;;5116476;28;20256;-72
2022/06/27 02:14:13;;;;;;;0.67;0.67;;;;;18.10;98054.00;;;;5116516;28;20236;-72
2022/06/27 02:16:42;;;;;;;0.30;0.30;;;;;18.10;98055.00;;;;5116500;28;20515;-72
2022/06/27 02:19:11;;;;;;;0.70;0.70;;;;;18.10;98054.00;;;;5116474;28;20225;-72
2022/06/27 02:21:38;;;;;;;0.40;0.40;;;;;18.00;98058.00;;;;5116364;28;20273;-72
2022/06/27 02:24:06;;;;;;;0.40;0.40;;;;;18.00;98069.00;;;;5116180;28;20222;-72
2022/06/27 02:26:36;;;;;;;1.27;1.17;;;;;18.00;98077.00;;;;5116189;28;20213;-72
2022/06/27 02:29:03;;;;;;;0.50;0.50;;;;;17.90;98072.00;;;;5098189;28;20218;-71
2022/06/27 02:31:31;;;;;;;0.30;0.30;;;;;17.90;98071.00;;;;5116368;28;20269;-72
2022/06/27 02:33:59;;;;;;;0.50;0.50;;;;;17.90;98059.00;;;;5116041;28;20210;-72
2022/06/27 02:36:30;;;;;;;0.60;0.60;;;;;17.90;98068.00;;;;5116103;28;20259;-72
2022/06/27 02:38:58;;;;;;;0.37;0.37;;;;;17.70;98072.00;;;;5116081;28;20204;-73
2022/06/27 02:41:32;;;;;;;0.33;0.33;;;;;17.80;98070.00;;;;5115595;28;20194;-71
2022/06/27 02:44:02;;;;;;;0.50;0.50;;;;;17.80;98058.00;;;;5115941;28;20533;-72
2022/06/27 02:46:30;;;;;;;0.87;0.87;;;;;17.80;98062.00;;;;5115926;28;20741;-73
2022/06/27 02:48:58;;;;;;;0.47;0.47;;;;;17.80;98049.00;;;;5115961;28;20197;-73
2022/06/27 02:51:30;;;;;;;0.47;0.47;;;;;17.90;98038.00;;;;5115727;28;20300;-73
2022/06/27 02:54:02;;;;;;;0.40;0.40;;;;;18.00;98033.00;;;;5115914;28;20222;-74
2022/06/27 02:56:32;;;;;;;0.40;0.40;;;;;17.80;98034.00;;;;5115686;28;20225;-73
2022/06/27 02:59:06;;;;;;;0.40;0.40;;;;;17.70;98038.00;;;;5115756;28;20645;-72
2022/06/27 03:01:38;;;;;;;0.30;0.30;;;;;17.80;98036.00;;;;5115860;28;20284;-73
2022/06/27 03:04:07;;;;;;;0.40;0.40;;;;;17.80;98039.00;;;;5097651;28;20292;-73
2022/06/27 03:06:34;;;;;;;0.50;0.50;;;;;17.80;98049.00;;;;5115834;28;20636;-73
2022/06/27 03:09:01;;;;;;;0.43;0.43;;;;;17.80;98048.00;;;;5115574;28;20228;-73
2022/06/27 03:11:28;;;;;;;0.80;0.80;;;;;17.80;98027.00;;;;5115570;28;20186;-73
2022/06/27 03:13:57;;;;;;;0.70;0.70;;;;;17.80;98027.00;;;;5097527;28;20226;-73
2022/06/27 03:16:24;;;;;;;0.40;0.40;;;;;17.90;98030.00;;;;5115443;28;20673;-73
2022/06/27 03:18:52;;;;;;;0.40;0.40;;;;;18.00;98025.00;;;;5115309;28;20223;-73
2022/06/27 03:21:20;;;;;;;0.60;0.60;;;;;17.90;98027.00;;;;5097436;28;20310;-73
2022/06/27 03:23:48;;;;;;;0.70;0.70;;;;;17.90;98035.00;;;;5097381;28;20527;-72
2022/06/27 03:26:16;;;;;;;0.50;0.50;;;;;18.00;98046.00;;;;5115176;28;20236;-72
2022/06/27 03:28:43;;;;;;;0.40;0.40;;;;;17.80;98037.00;;;;5115220;28;20186;-73
2022/06/27 03:31:10;;;;;;;0.40;0.40;;;;;17.80;98011.00;;;;5115123;28;20665;-73
2022/06/27 03:33:37;;;;;;;0.37;0.37;;;;;17.90;98015.00;;;;5115117;28;20205;-73
2022/06/27 03:36:05;;;;;;;0.40;0.40;;;;;18.00;98016.00;;;;5115007;28;20260;-73
2022/06/27 03:38:32;;;;;;;0.30;0.30;;;;;18.00;98029.00;;;;5115073;28;20194;-73
2022/06/27 03:41:00;;;;;;;0.50;0.50;;;;;17.80;98046.00;;;;5114971;28;20190;-73
2022/06/27 03:43:29;;;;;;;0.60;0.60;;;;;18.00;98063.00;;;;5097022;28;20275;-73
2022/06/27 03:45:56;;;;;;;0.40;0.40;;;;;17.90;98067.00;;;;5114894;28;20243;-73
2022/06/27 03:51:12;;;;;;;0.40;0.40;;;;;17.70;98071.00;;;;5114993;28;20633;-73
2022/06/27 03:53:39;;;;;;;0.50;0.50;;;;;17.90;98052.00;;;;5113674;28;20240;-74
2022/06/27 03:56:06;;;;;;;0.50;0.50;;;;;17.90;98043.00;;;;5114776;28;20208;-73
2022/06/27 03:58:33;;;;;;;0.50;0.50;;;;;17.90;98030.00;;;;5114632;28;20218;-73
2022/06/27 04:01:01;;;;;;;0.40;0.40;;;;;17.90;98006.00;;;;5114742;28;20217;-73
2022/06/27 04:03:27;;;;;;;0.43;0.43;;;;;18.00;97996.00;;;;5114562;28;20190;-72
2022/06/27 04:05:56;;;;;;;0.60;0.60;;;;;17.90;98002.00;;;;5114667;28;20228;-73
2022/06/27 04:08:24;;;;;;;0.50;0.50;;;;;17.90;98009.00;;;;5114642;28;20202;-72
2022/06/27 04:10:51;;;;;;;0.40;0.40;;;;;17.90;98025.00;;;;5114656;28;20197;-72
2022/06/27 04:13:18;;;;;;;0.77;0.77;;;;;18.00;98051.00;;;;5096584;28;20227;-73
2022/06/27 04:15:45;;;;;;;0.73;0.73;;;;;17.90;98061.00;;;;5114439;28;20250;-73
2022/06/27 04:18:14;;;;;;;0.40;0.40;;;;;18.00;98072.00;;;;5096447;28;20217;-72
2022/06/27 04:20:42;;;;;;;0.40;0.40;;;;;18.00;98058.00;;;;5114352;28;20226;-72
2022/06/27 04:23:09;;;;;;;0.40;0.40;;;;;18.00;98046.00;;;;5114535;28;20205;-72
2022/06/27 04:25:36;;;;;;;0.73;0.73;;;;;17.90;98042.00;;;;5115936;28;20304;-73
2022/06/27 04:28:03;;;;;;;0.50;0.50;;;;;18.00;98012.00;;;;5114365;28;20186;-72
2022/06/27 04:30:31;;;;;;;0.50;0.50;;;;;18.10;97953.00;;;;5114211;28;20209;-72
2022/06/27 04:32:58;;;;;;;0.80;0.80;;;;;18.10;97960.00;;;;5114239;28;20190;-72
2022/06/27 04:35:25;;;;;;;0.50;0.50;;;;;18.20;97972.00;;;;5096299;28;20537;-72
2022/06/27 04:37:54;;;;;;;0.50;0.50;;;;;18.30;97963.00;;;;5114148;28;20217;-72
2022/06/27 04:40:22;;;;;;;0.50;0.50;;;;;18.30;97957.00;;;;5114161;28;20272;-72
2022/06/27 04:42:50;;;;;;;0.40;0.40;;;;;18.30;97960.00;;;;5114035;28;20259;-73
2022/06/27 04:45:19;;;;;;;0.30;0.30;;;;;18.40;97962.00;;;;5113981;28;20217;-72
2022/06/27 04:47:48;;;;;;;0.40;0.40;;;;;18.30;97983.00;;;;5114037;28;20197;-72
2022/06/27 04:50:21;;;;;;;0.50;0.50;;;;;18.30;97994.00;;;;5096047;28;20238;-73
2022/06/27 04:52:51;;;;;;;0.40;0.40;;;;;18.30;98000.00;;;;5114297;28;20181;-73
2022/06/27 04:55:20;;;;;;;0.43;0.43;;;;;18.30;97998.00;;;;5113908;28;20716;-73
2022/06/27 04:57:47;;;;;;;0.60;0.60;;;;;18.40;97990.00;;;;5113964;28;20334;-73
2022/06/27 05:00:17;;;;;;;0.50;0.50;;;;;18.50;97990.00;;;;5113766;28;20268;-73
2022/06/27 05:02:44;;;;;;;0.40;0.40;;;;;18.60;97989.00;;;;5113889;28;20239;-73
2022/06/27 05:05:10;;;;;;;1.00;0.83;;;;;18.60;98006.00;;;;5114807;28;20221;-73
2022/06/27 05:07:37;;;;;;;0.77;0.77;;;;;18.50;98024.00;;;;5117593;28;20194;-73
2022/06/27 05:10:08;;;;;;;0.40;0.40;;;;;18.50;98050.00;;;;5117439;28;20190;-73
2022/06/27 05:12:35;;;;;;;0.53;0.53;;;;;18.60;98069.00;;;;5117325;28;20230;-73
2022/06/27 05:15:01;;;;;;;0.50;0.50;;;;;18.70;98078.00;;;;5117516;28;20198;-72
2022/06/27 05:17:29;;;;;;;0.53;0.53;;;;;18.80;98093.00;;;;5117379;28;20224;-73
2022/06/27 05:19:56;;;;;;;0.40;0.40;;;;;19.00;98101.00;;;;5117496;28;20202;-73
2022/06/27 05:22:23;;;;;;;0.50;0.50;;;;;18.90;98095.00;;;;5099755;28;20231;-72
2022/06/27 05:24:50;;;;;;;0.40;0.40;;;;;19.00;98091.00;;;;5117396;28;20282;-73
2022/06/27 05:27:17;;;;;;;0.30;0.30;;;;;19.00;98092.00;;;;5117247;28;20235;-73
2022/06/27 05:29:44;;;;;;;0.40;0.40;;;;;19.00;98098.00;;;;5117228;28;20190;-74
2022/06/27 05:32:11;;;;;;;0.40;0.40;;;;;19.10;98101.00;;;;5117182;28;20186;-72
2022/06/27 05:34:39;;;;;;;0.43;0.43;;;;;19.20;98099.00;;;;5099068;28;20225;-71
2022/06/27 05:37:06;;;;;;;0.50;0.50;;;;;19.40;98108.00;;;;5117027;28;20202;-73
2022/06/27 05:39:34;;;;;;;0.40;0.40;;;;;19.50;98113.00;;;;5116856;28;20226;-73
2022/06/27 05:42:01;;;;;;;1.80;1.00;;;;;19.50;98119.00;;;;5117010;28;20198;-73
2022/06/27 05:44:28;;;;;;;0.30;0.30;;;;;19.50;98129.00;;;;5116619;28;20210;-74
2022/06/27 05:46:56;;;;;;;0.33;0.33;;;;;19.60;98141.00;;;;5116943;28;20194;-73
2022/06/27 05:49:25;;;;;;;0.47;0.47;;;;;19.50;98130.00;;;;5116857;28;20227;-73
2022/06/27 05:51:53;;;;;;;0.57;0.57;;;;;19.60;98131.00;;;;5116755;28;20194;-73
2022/06/27 05:54:22;;;;;;;1.70;1.50;;;;;19.50;98123.00;;;;5117104;28;20205;-72
2022/06/27 05:56:49;;;;;;;0.40;0.40;;;;;19.50;98142.00;;;;5116743;28;20214;-73
2022/06/27 05:59:17;;;;;;;0.40;0.40;;;;;19.60;98171.00;;;;5116582;28;20204;-71
2022/06/27 06:01:45;;;;;;;0.37;0.37;;;;;19.60;98175.00;;;;5116537;28;20289;-72
2022/06/27 06:04:15;;;;;;;0.40;0.40;;;;;19.50;98172.00;;;;5116878;28;20202;-74
2022/06/27 06:06:43;;;;;;;0.70;0.70;;;;;19.50;98156.00;;;;5116775;28;20630;-68
2022/06/27 06:09:11;;;;;;;0.40;0.40;;;;;19.50;98169.00;;;;5116522;28;20213;-67
2022/06/27 06:11:38;;;;;;;0.70;0.70;;;;;19.40;98162.00;;;;5116313;28;20217;-68
2022/06/27 06:14:05;;;;;;;0.40;0.40;;;;;19.30;98176.00;;;;5098625;28;20236;-68
2022/06/27 06:16:32;;;;;;;0.30;0.30;;;;;19.30;98176.00;;;;5115559;28;20194;-68
2022/06/27 06:18:59;;;;;;;1.27;1.17;;;;;19.30;98180.00;;;;5116622;28;20190;-70
2022/06/27 06:21:26;;;;;;;0.30;0.30;;;;;19.30;98181.00;;;;5116610;28;20292;-73
2022/06/27 06:23:53;;;;;;;0.50;0.50;;;;;19.30;98177.00;;;;5116455;28;20251;-74
2022/06/27 06:26:21;;;;;;;0.40;0.40;;;;;19.40;98174.00;;;;5116384;28;20711;-74
2022/06/27 06:28:49;;;;;;;0.40;0.40;;;;;19.50;98174.00;;;;5116246;28;20202;-75
2022/06/27 06:31:21;;;;;;;0.40;0.40;;;;;19.40;98180.00;;;;5116275;28;20189;-75
2022/06/27 06:33:50;;;;;;;0.40;0.40;;;;;19.40;98174.00;;;;5116264;28;20201;-74
2022/06/27 06:36:17;;;;;;;0.43;0.43;;;;;19.40;98168.00;;;;5116178;28;20190;-75
2022/06/27 06:38:44;;;;;;;0.50;0.50;;;;;19.50;98192.00;;;;5116017;28;20241;-75
2022/06/27 06:41:11;;;;;;;0.40;0.40;;;;;19.40;98196.00;;;;5116197;28;20201;-75
2022/06/27 06:43:38;;;;;;;0.40;0.40;;;;;19.30;98193.00;;;;5098406;28;20205;-74
2022/06/27 06:46:05;;;;;;;0.50;0.50;;;;;19.40;98191.00;;;;5116001;28;20226;-75
2022/06/27 06:48:32;;;;;;;0.50;0.50;;;;;19.40;98193.00;;;;5115958;28;20290;-74
2022/06/27 06:51:00;;;;;;;0.50;0.50;;;;;19.40;98197.00;;;;5116237;28;20198;-75
2022/06/27 06:53:27;;;;;;;0.70;0.70;;;;;19.50;98182.00;;;;5116409;28;20186;-74
2022/06/27 06:55:57;;;;;;;0.40;0.40;;;;;19.50;98176.00;;;;5116257;28;20197;-77
2022/06/27 06:58:25;;;;;;;0.83;0.83;;;;;19.50;98185.00;;;;5115981;28;20214;-73
2022/06/27 07:00:52;;;;;;;0.30;0.30;;;;;19.60;98193.00;;;;5115772;28;20714;-73
2022/06/27 07:03:20;;;;;;;0.40;0.40;;;;;19.70;98193.00;;;;5115868;28;20186;-75
2022/06/27 07:05:47;;;;;;;0.40;0.40;;;;;19.70;98192.00;;;;5115650;28;20233;-76
2022/06/27 07:08:15;;;;;;;0.33;0.33;;;;;19.50;98192.00;;;;5115824;28;20220;-75
2022/06/27 07:10:42;;;;;;;0.40;0.40;;;;;19.60;98207.00;;;;5097758;28;20516;-75
2022/06/27 07:13:10;;;;;;;0.50;0.50;;;;;19.80;98200.00;;;;5097591;28;20200;-74
2022/06/27 07:15:38;;;;;;;0.50;0.50;;;;;19.70;98219.00;;;;5115401;28;20209;-73
2022/06/27 07:18:06;;;;;;;0.50;0.50;;;;;19.60;98216.00;;;;5115373;28;20214;-77
2022/06/27 07:20:34;;;;;;;0.40;0.40;;;;;19.50;98206.00;;;;5115581;28;20205;-76
2022/06/27 07:23:01;;;;;;;0.40;0.40;;;;;19.50;98210.00;;;;5097440;28;20285;-75
2022/06/27 07:25:28;;;;;;;0.67;0.67;;;;;19.50;98204.00;;;;5115195;28;20222;-76
2022/06/27 07:27:55;;;;;;;0.60;0.60;;;;;19.60;98195.00;;;;5115176;28;20645;-76
2022/06/27 07:30:22;;;;;;;0.50;0.50;;;;;19.80;98185.00;;;;5115184;28;20197;-73
2022/06/27 07:32:49;;;;;;;0.40;0.40;;;;;19.90;98188.00;;;;5115204;28;20213;-75
2022/06/27 07:35:18;;;;;;;0.33;0.33;;;;;20.00;98188.00;;;;5097487;28;20202;-74
2022/06/27 07:37:48;;;;;;;0.50;0.50;;;;;20.00;98188.00;;;;5114985;28;20296;-73
2022/06/27 07:40:18;;;;;;;0.80;0.80;;;;;20.00;98200.00;;;;5097213;28;20198;-74
2022/06/27 07:42:45;;;;;;;0.70;0.70;;;;;20.10;98209.00;;;;5115170;28;20198;-73
2022/06/27 07:45:14;;;;;;;0.87;0.87;;;;;20.20;98222.00;;;;5114876;28;20634;-74
2022/06/27 07:47:42;;;;;;;0.73;0.73;;;;;20.10;98230.00;;;;5115009;28;20190;-74
2022/06/27 07:50:10;;;;;;;0.40;0.40;;;;;20.00;98240.00;;;;5114740;28;20233;-73
2022/06/27 07:55:20;;;;;;;0.50;0.50;;;;;20.00;98248.00;;;;5113950;28;20195;-75
2022/06/27 07:57:48;;;;;;;0.50;0.50;;;;;20.10;98252.00;;;;5114652;28;20283;-74
2022/06/27 08:00:15;;;;;;;0.40;0.40;;;;;20.20;98258.00;;;;5114811;28;20254;-75
2022/06/27 08:02:42;;;;;;;0.50;0.50;;;;;20.30;98268.00;;;;5096685;28;20190;-70
2022/06/27 08:05:10;;;;;;;0.50;0.50;;;;;20.30;98280.00;;;;5096793;28;20271;-72
2022/06/27 08:07:38;;;;;;;0.40;0.40;;;;;20.30;98272.00;;;;5114746;28;20281;-72
2022/06/27 08:10:06;;;;;;;0.60;0.60;;;;;20.50;98284.00;;;;5114519;28;20606;-71
2022/06/27 08:12:34;;;;;;;0.40;0.40;;;;;20.60;98278.00;;;;5114713;28;20225;-74
2022/06/27 08:15:01;;;;;;;0.57;0.57;;;;;20.70;98268.00;;;;5114455;28;20692;-75
2022/06/27 08:17:29;;;;;;;0.40;0.40;;;;;20.80;98271.00;;;;5114582;28;20201;-75
2022/06/27 08:19:56;;;;;;;0.40;0.40;;;;;20.80;98267.00;;;;5114488;28;20198;-74
2022/06/27 08:22:24;;;;;;;0.47;0.47;;;;;20.90;98268.00;;;;5114641;28;20221;-73
2022/06/27 08:24:51;;;;;;;0.40;0.40;;;;;20.90;98283.00;;;;5114285;28;20307;-72
2022/06/27 08:27:18;;;;;;;0.87;0.87;;;;;20.80;98290.00;;;;5114349;28;20190;-75
2022/06/27 08:29:45;;;;;;;1.50;1.03;;;;;20.50;98285.00;;;;5114485;28;20202;-73
2022/06/27 08:32:12;;;;;;;0.40;0.40;;;;;20.60;98285.00;;;;5096395;28;20660;-73
2022/06/27 08:34:41;;;;;;;0.50;0.50;;;;;20.70;98281.00;;;;5096155;28;20675;-74
2022/06/27 08:37:09;;;;;;;0.47;0.47;;;;;20.70;98284.00;;;;5114584;28;20527;-74
2022/06/27 08:39:35;;;;;;;0.50;0.50;;;;;20.80;98293.00;;;;5115382;28;20240;-74
2022/06/27 08:42:03;;;;;;;0.40;0.40;;;;;21.10;98302.00;;;;5118312;28;20194;-74
2022/06/27 08:44:33;;;;;;;0.50;0.50;;;;;21.00;98300.00;;;;5116095;28;20174;-75
2022/06/27 08:47:02;;;;;;;0.40;0.40;;;;;21.10;98289.00;;;;5114272;28;20303;-75
2022/06/27 08:49:31;;;;;;;0.67;0.67;;;;;21.20;98297.00;;;;5113990;28;20198;-74
2022/06/27 08:51:58;;;;;;;0.47;0.47;;;;;21.20;98304.00;;;;5113936;28;20217;-75
2022/06/27 08:54:28;;;;;;;0.40;0.40;;;;;21.30;98312.00;;;;5096054;28;20645;-76
2022/06/27 08:56:57;;;;;;;0.50;0.50;;;;;21.40;98318.00;;;;5114160;28;20259;-76
2022/06/27 08:59:28;;;;;;;0.50;0.50;;;;;21.30;98315.00;;;;5113905;28;20233;-77
2022/06/27 09:01:55;;;;;;;0.80;0.80;;;;;21.10;98313.00;;;;5113897;28;20220;-73
2022/06/27 09:04:22;;;;;;;0.50;0.50;;;;;21.00;98314.00;;;;5113845;28;20264;-75
2022/06/27 09:06:57;;;;;;;1.23;1.17;;;;;20.90;98307.00;;;;5113730;28;20222;-75
2022/06/27 09:09:27;;;;;;;0.93;0.90;;;;;20.70;98305.00;;;;5113773;28;20308;-74
2022/06/27 09:11:54;;;;;;;0.67;0.67;;;;;20.70;98309.00;;;;5113661;28;20543;-75
2022/06/27 09:14:36;;;;;;;0.73;0.73;;;;;20.80;98319.00;;;;5113456;28;20229;-74
2022/06/27 09:17:12;;;;;;;0.40;0.40;;;;;20.70;98324.00;;;;5095712;28;20224;-73
2022/06/27 09:19:46;;;;;;;0.40;0.40;;;;;20.60;98328.00;;;;5113584;28;20265;-74
2022/06/27 09:22:15;;;;;;;0.70;0.70;;;;;20.60;98321.00;;;;5095832;28;20217;-74
2022/06/27 09:25:04;;;;;;;0.50;0.50;;;;;20.60;98327.00;;;;5095550;28;20622;-71
2022/06/27 09:27:41;;;;;;;0.50;0.50;;;;;20.60;98320.00;;;;5113673;28;20229;-74
2022/06/27 09:30:27;;;;;;;0.50;0.50;;;;;20.60;98316.00;;;;5113650;28;20686;-73
2022/06/27 09:32:58;;;;;;;0.50;0.50;;;;;20.50;98315.00;;;;5110429;28;20281;-75
2022/06/27 09:35:28;;;;;;;0.63;0.63;;;;;20.50;98323.00;;;;5113503;28;20241;-75
2022/06/27 09:37:59;;;;;;;0.50;0.50;;;;;20.70;98313.00;;;;5113481;28;20653;-74
2022/06/27 09:40:27;;;;;;;0.50;0.50;;;;;20.80;98303.00;;;;5113821;28;20281;-75
2022/06/27 09:42:56;;;;;;;0.50;0.50;;;;;20.80;98291.00;;;;5113340;28;20263;-73
2022/06/27 09:45:27;;;;;;;0.47;0.47;;;;;21.00;98297.00;;;;5113370;28;20622;-74
2022/06/27 09:47:58;;;;;;;0.70;0.70;;;;;21.20;98298.00;;;;5113424;28;20194;-75
2022/06/27 09:50:28;;;;;;;0.60;0.60;;;;;21.60;98301.00;;;;5095513;28;20209;-74
2022/06/27 09:52:55;;;;;;;0.40;0.40;;;;;21.70;98298.00;;;;5115358;28;20251;-74
2022/06/27 09:55:23;;;;;;;0.98;0.93;;;;;21.90;98312.00;;;;5116578;28;20746;-74
2022/06/27 09:57:51;;;;;;;0.43;0.43;;;;;22.30;98320.00;;;;5116761;28;20194;-76
2022/06/27 10:00:20;;;;;;;0.50;0.50;;;;;22.30;98331.00;;;;5098655;28;20210;-76
2022/06/27 10:02:48;;;;;;;1.35;1.02;;;;;22.20;98325.00;;;;5116719;28;20284;-75
2022/06/27 10:05:17;;;;;;;0.63;0.63;;;;;22.30;98327.00;;;;5116662;28;20262;-73
2022/06/27 10:07:54;;;;;;;0.80;0.80;;;;;22.40;98340.00;;;;5116407;28;20564;-73
2022/06/27 10:10:21;;;;;;;0.45;0.45;;;;;22.70;98335.00;;;;5116721;28;20208;-73
2022/06/27 10:12:58;;;;;;;0.68;0.68;;;;;22.90;98342.00;;;;5116702;28;20296;-74
2022/06/27 10:15:29;;;;;;;0.60;0.60;;;;;22.90;98351.00;;;;5116539;28;20205;-74
2022/06/27 10:17:58;;;;;;;0.77;0.77;;;;;23.00;98363.00;;;;5116537;28;20293;-77
2022/06/27 10:20:32;;;;;;;0.40;0.40;;;;;23.00;98377.00;;;;5116386;28;20194;-76
2022/06/27 10:23:27;;;;;;;0.57;0.57;;;;;22.50;98370.00;;;;5116472;28;20625;-73
2022/06/27 10:25:56;;;;;;;0.30;0.30;;;;;22.70;98384.00;;;;5116350;28;20225;-74
2022/06/27 10:28:23;;;;;;;0.57;0.57;;;;;22.70;98391.00;;;;5116144;28;20202;-71
2022/06/27 10:30:52;;;;;;;0.50;0.50;;;;;22.70;98392.00;;;;5116466;28;20300;-72
2022/06/27 10:33:38;;;;;;;0.50;0.50;;;;;22.50;98396.00;;;;5116173;28;20643;-71
2022/06/27 10:36:14;;;;;;;1.75;0.90;;;;;22.60;98391.00;;;;5116242;28;20254;-71
2022/06/27 10:38:57;;;;;;;0.80;0.80;;;;;22.80;98394.00;;;;5116171;28;20219;-72
2022/06/27 10:41:43;;;;;;;0.50;0.50;;;;;22.90;98390.00;;;;5116051;28;20209;-72
2022/06/27 10:44:32;;;;;;;0.52;0.52;;;;;23.30;98399.00;;;;5098048;28;20312;-72
2022/06/27 10:47:01;;;;;;;0.60;0.60;;;;;23.20;98396.00;;;;5115963;28;20286;-71
2022/06/27 10:49:31;;;;;;;0.65;0.65;;;;;23.20;98394.00;;;;5097896;28;20279;-76
2022/06/27 10:52:24;;;;;;;0.32;0.32;;;;;23.20;98394.00;;;;5098016;28;20210;-73
2022/06/27 10:54:53;;;;;;;0.52;0.52;;;;;23.10;98396.00;;;;5105248;28;20297;-75
2022/06/27 10:57:42;;;;;;;0.70;0.70;;;;;23.00;98396.00;;;;5097881;28;20217;-73
2022/06/27 11:00:40;;;;;;;0.40;0.40;;;;;23.20;98383.00;;;;5115940;28;20232;-74
2022/06/27 11:03:18;;;;;;;0.60;0.60;;;;;22.90;98384.00;;;;5115320;28;20248;-74
2022/06/27 11:06:13;;;;;;;0.40;0.40;;;;;23.10;98389.00;;;;5115658;28;20312;-73
2022/06/27 11:08:42;;;;;;;0.57;0.57;;;;;23.40;98391.00;;;;5094211;28;20212;-71
2022/06/27 11:11:14;;;;;;;0.40;0.40;;;;;23.50;98397.00;;;;5115756;28;20214;-74
2022/06/27 11:13:46;;;;;;;0.30;0.30;;;;;23.50;98407.00;;;;5115597;28;20193;-74
2022/06/27 11:16:18;;;;;;;0.38;0.38;;;;;23.60;98397.00;;;;5115463;28;20241;-72
2022/06/27 11:18:50;;;;;;;0.50;0.50;;;;;23.70;98400.00;;;;5115466;28;20296;-73
2022/06/27 11:21:19;;;;;;;0.70;0.70;;;;;23.90;98408.00;;;;5115419;28;20728;-73
2022/06/27 11:23:56;;;;;;;0.35;0.35;;;;;23.80;98428.00;;;;5116597;28;20549;-74
2022/06/27 11:26:24;;;;;;;0.60;0.60;;;;;23.20;98420.00;;;;5115335;28;20217;-73
2022/06/27 11:34:24;;;;;;;0.75;0.75;;;;;23.50;98405.00;;;;5115111;28;20198;-78
2022/06/27 11:36:52;;;;;;;0.65;0.65;;;;;23.40;98415.00;;;;5115304;28;20209;-75
2022/06/27 11:39:24;;;;;;;0.40;0.40;;;;;23.50;98407.00;;;;5115056;28;20198;-77
2022/06/27 11:41:56;;;;;;;0.80;0.80;;;;;23.70;98419.00;;;;5115090;28;20256;-75
2022/06/27 11:44:23;;;;;;;0.40;0.40;;;;;23.60;98407.00;;;;5115098;28;20509;-77
2022/06/27 11:46:51;;;;;;;0.60;0.60;;;;;23.60;98410.00;;;;5114951;28;20226;-75
2022/06/27 11:49:29;;;;;;;0.60;0.60;;;;;23.80;98426.00;;;;5097044;28;20200;-77
2022/06/27 11:52:00;;;;;;;0.38;0.38;;;;;23.50;98396.00;;;;5114970;28;20539;-76
2022/06/27 11:54:38;;;;;;;0.50;0.50;;;;;23.70;98416.00;;;;5114895;28;20309;-75
2022/06/27 11:57:19;;;;;;;0.40;0.40;;;;;23.70;98417.00;;;;5114994;28;20204;-76
2022/06/27 11:59:49;;;;;;;0.43;0.43;;;;;23.90;98415.00;;;;5115034;28;20198;-76
2022/06/27 12:02:26;;;;;;;0.60;0.60;;;;;23.80;98429.00;;;;5114783;28;20251;-75
2022/06/27 12:05:04;;;;;;;0.60;0.60;;;;;23.40;98429.00;;;;5114744;28;20174;-75
2022/06/27 12:07:31;;;;;;;0.60;0.60;;;;;23.50;98428.00;;;;5114975;28;20218;-75
2022/06/27 12:09:58;;;;;;;0.60;0.60;;;;;23.20;98432.00;;;;5114655;28;20622;-74
2022/06/27 12:12:26;;;;;;;0.63;0.63;;;;;22.80;98432.00;;;;5114675;28;20208;-73
2022/06/27 12:14:54;;;;;;;0.73;0.73;;;;;23.10;98426.00;;;;5113604;28;20279;-74
2022/06/27 12:17:22;;;;;;;1.35;0.88;;;;;23.10;98426.00;;;;5096520;28;20202;-75
2022/06/27 12:20:01;;;;;;;0.47;0.47;;;;;23.00;98426.00;;;;5114384;28;20225;-75
2022/06/27 12:22:29;;;;;;;2.28;1.88;;;;;23.10;98430.00;;;;5114474;28;20206;-76
2022/06/27 12:24:59;;;;;;;0.52;0.52;;;;;23.10;98435.00;;;;5114359;28;20640;-76
2022/06/27 12:27:25;;;;;;;0.40;0.40;;;;;22.90;98439.00;;;;5114459;28;20213;-76
2022/06/27 12:29:52;;;;;;;1.73;1.60;;;;;22.90;98443.00;;;;5114398;28;20302;-74
2022/06/27 12:32:19;;;;;;;0.63;0.63;;;;;22.90;98441.00;;;;5114227;28;20212;-73
2022/06/27 12:34:48;;;;;;;0.50;0.50;;;;;23.00;98435.00;;;;5114481;28;20300;-73
2022/06/27 12:37:15;;;;;;;0.45;0.45;;;;;23.20;98434.00;;;;5114367;28;20189;-74
2022/06/27 12:39:42;;;;;;;0.35;0.35;;;;;23.40;98436.00;;;;5114190;28;20712;-73